createdAt,value
2022-11-16T00:02:08.943Z,428.38
2022-11-16T00:04:35.416Z,479.70
2022-11-16T00:07:01.817Z,734.10
2022-11-16T00:09:28.359Z,612.90
2022-11-16T00:11:54.655Z,580.22
2022-11-16T00:14:21.266Z,555.33
2022-11-16T00:16:47.681Z,549.08
2022-11-16T00:19:14.197Z,540.03
2022-11-16T00:21:40.619Z,527.15
2022-11-16T00:24:07.007Z,508.67
2022-11-16T00:26:33.412Z,509.45
2022-11-16T00:28:59.915Z,493.27
2022-11-16T00:31:26.317Z,495.75
2022-11-16T00:33:52.638Z,489.33
2022-11-16T00:36:18.995Z,492.75
2022-11-16T00:38:45.723Z,479.77
2022-11-16T00:41:12.152Z,476.67
2022-11-16T00:43:38.531Z,472.23
2022-11-16T00:46:04.933Z,458.85
2022-11-16T00:48:31.690Z,452.77
2022-11-16T00:50:58.336Z,445.58
2022-11-16T00:53:24.770Z,446.20
2022-11-16T00:55:51.124Z,430.90
2022-11-16T00:58:17.648Z,424.88
2022-11-16T01:00:44.083Z,424.23
2022-11-16T01:03:10.484Z,410.23
2022-11-16T01:05:36.849Z,417.60
2022-11-16T01:08:03.297Z,409.45
2022-11-16T01:10:29.615Z,404.60
2022-11-16T01:12:56.118Z,397.63
2022-11-16T01:15:22.445Z,384.27
2022-11-16T01:17:48.799Z,371.90
2022-11-16T01:20:16.136Z,378.98
2022-11-16T01:22:42.469Z,362.80
2022-11-16T01:25:08.837Z,367.92
2022-11-16T01:27:35.310Z,357.00
2022-11-16T01:30:01.765Z,354.88
2022-11-16T01:32:28.514Z,356.88
2022-11-16T01:34:54.935Z,351.25
2022-11-16T01:37:21.272Z,345.23
2022-11-16T01:39:47.814Z,343.23
2022-11-16T01:42:14.496Z,339.40
2022-11-16T01:44:40.807Z,333.85
2022-11-16T01:47:07.158Z,332.92
2022-11-16T01:49:33.554Z,333.45
2022-11-16T01:51:59.889Z,321.95
2022-11-16T01:54:26.414Z,324.30
2022-11-16T01:56:52.753Z,319.60
2022-11-16T01:59:19.133Z,315.25
2022-11-16T02:01:45.582Z,308.73
2022-11-16T02:04:12.624Z,312.52
2022-11-16T02:06:39.630Z,306.30
2022-11-16T02:09:09.676Z,297.88
2022-11-16T02:11:36.078Z,300.45
2022-11-16T02:14:02.442Z,293.27
2022-11-16T02:16:28.869Z,295.60
2022-11-16T02:18:55.277Z,290.13
2022-11-16T02:21:21.708Z,273.08
2022-11-16T02:23:48.121Z,279.20
2022-11-16T02:26:14.570Z,273.63
2022-11-16T02:28:40.950Z,268.33
2022-11-16T02:31:07.292Z,264.02
2022-11-16T02:33:33.707Z,265.27
2022-11-16T02:36:00.009Z,258.65
2022-11-16T02:38:26.461Z,258.65
2022-11-16T02:40:52.983Z,253.63
2022-11-16T02:43:19.315Z,259.30
2022-11-16T02:45:45.677Z,248.85
2022-11-16T02:48:11.962Z,244.35
2022-11-16T02:50:38.419Z,240.45
2022-11-16T02:53:04.753Z,239.48
2022-11-16T02:55:31.088Z,240.85
2022-11-16T02:57:57.415Z,231.82
2022-11-16T03:00:23.910Z,232.65
2022-11-16T03:02:50.406Z,229.27
2022-11-16T03:05:16.754Z,221.98
2022-11-16T03:07:43.081Z,221.18
2022-11-16T03:10:09.883Z,220.27
2022-11-16T03:12:36.272Z,213.57
2022-11-16T03:15:02.676Z,214.18
2022-11-16T03:17:29.038Z,213.40
2022-11-16T03:19:55.346Z,209.70
2022-11-16T03:22:21.634Z,204.57
2022-11-16T03:24:47.935Z,203.55
2022-11-16T03:27:14.311Z,200.20
2022-11-16T03:29:40.753Z,199.35
2022-11-16T03:32:07.104Z,194.15
2022-11-16T03:34:33.553Z,191.30
2022-11-16T03:36:59.942Z,185.77
2022-11-16T03:39:26.425Z,180.68
2022-11-16T03:41:52.775Z,183.95
2022-11-16T03:44:19.154Z,175.95
2022-11-16T03:46:45.525Z,171.27
2022-11-16T03:49:11.916Z,168.27
2022-11-16T03:51:38.210Z,170.48
2022-11-16T03:54:04.686Z,163.10
2022-11-16T03:56:31.011Z,164.95
2022-11-16T03:58:57.503Z,159.50
2022-11-16T04:01:23.871Z,158.48
2022-11-16T04:03:50.215Z,158.95
2022-11-16T04:06:16.529Z,154.45
2022-11-16T04:08:42.928Z,153.63
2022-11-16T04:11:09.411Z,152.43
2022-11-16T04:13:35.869Z,149.68
2022-11-16T04:16:02.332Z,148.13
2022-11-16T04:18:28.680Z,145.93
2022-11-16T04:20:55.069Z,145.77
2022-11-16T04:23:21.678Z,140.52
2022-11-16T04:25:48.166Z,140.30
2022-11-16T04:28:14.663Z,139.55
2022-11-16T04:30:40.986Z,139.07
2022-11-16T04:33:07.362Z,133.00
2022-11-16T04:35:33.809Z,134.15
2022-11-16T04:38:00.227Z,130.93
2022-11-16T04:40:26.682Z,129.68
2022-11-16T04:42:53.236Z,130.65
2022-11-16T04:45:19.564Z,125.85
2022-11-16T04:47:45.941Z,122.70
2022-11-16T04:50:12.346Z,123.07
2022-11-16T04:52:38.743Z,118.65
2022-11-16T04:55:07.427Z,121.93
2022-11-16T04:57:33.936Z,117.85
2022-11-16T05:00:00.310Z,114.85
2022-11-16T05:02:26.876Z,114.25
2022-11-16T05:04:53.321Z,112.13
2022-11-16T05:07:19.758Z,111.50
2022-11-16T05:09:46.175Z,107.32
2022-11-16T05:12:12.545Z,105.63
2022-11-16T05:14:39.022Z,107.03
2022-11-16T05:17:05.538Z,104.43
2022-11-16T05:19:31.925Z,102.80
2022-11-16T05:21:58.420Z,99.75
2022-11-16T05:24:24.796Z,99.30
2022-11-16T05:26:51.216Z,97.07
2022-11-16T05:29:17.663Z,96.65
2022-11-16T05:31:44.285Z,95.20
2022-11-16T05:34:10.872Z,90.80
2022-11-16T05:36:37.319Z,90.85
2022-11-16T05:39:03.687Z,92.43
2022-11-16T05:41:30.246Z,91.20
2022-11-16T05:43:56.597Z,87.18
2022-11-16T05:46:23.044Z,87.75
2022-11-16T05:48:49.397Z,84.45
2022-11-16T05:51:15.752Z,83.70
2022-11-16T05:53:43.416Z,83.43
2022-11-16T05:56:09.836Z,82.45
2022-11-16T05:58:36.551Z,78.82
2022-11-16T06:01:03.227Z,79.07
2022-11-16T06:03:29.823Z,78.57
2022-11-16T06:05:56.350Z,76.72
2022-11-16T06:08:22.735Z,75.13
2022-11-16T06:10:49.113Z,71.95
2022-11-16T06:13:19.508Z,74.35
2022-11-16T06:18:17.985Z,73.60
2022-11-16T06:20:44.355Z,71.97
2022-11-16T06:23:10.696Z,71.95
2022-11-16T06:25:37.046Z,70.72
2022-11-16T06:28:07.666Z,70.68
2022-11-16T06:30:34.576Z,70.50
2022-11-16T06:33:00.988Z,65.45
2022-11-16T06:35:27.445Z,64.13
2022-11-16T06:40:34.152Z,56.13
2022-11-16T06:43:00.520Z,58.95
2022-11-16T06:45:26.986Z,56.67
2022-11-16T06:47:53.290Z,58.00
2022-11-16T06:50:19.918Z,56.40
2022-11-16T06:52:46.571Z,55.33
2022-11-16T06:55:12.908Z,55.92
2022-11-16T06:57:39.453Z,54.28
2022-11-16T07:00:05.798Z,55.35
2022-11-16T07:02:32.122Z,56.17
2022-11-16T07:05:03.310Z,57.80
2022-11-16T07:07:30.557Z,56.28
2022-11-16T07:09:56.944Z,55.22
2022-11-16T07:12:23.297Z,53.70
2022-11-16T07:14:49.779Z,53.58
2022-11-16T07:17:17.159Z,54.50
2022-11-16T07:19:43.598Z,52.72
2022-11-16T07:22:09.989Z,54.17
2022-11-16T07:24:36.327Z,52.28
2022-11-16T07:27:02.671Z,50.47
2022-11-16T07:29:29.022Z,53.85
2022-11-16T07:31:55.392Z,53.80
2022-11-16T07:34:21.705Z,54.28
2022-11-16T07:36:50.045Z,55.80
2022-11-16T07:39:16.386Z,52.33
2022-11-16T07:41:42.904Z,53.15
2022-11-16T07:44:12.034Z,55.42
2022-11-16T07:46:46.562Z,53.20
2022-11-16T07:49:13.862Z,52.83
2022-11-16T07:51:40.273Z,56.75
2022-11-16T07:54:06.657Z,57.75
2022-11-16T07:56:33.047Z,58.95
2022-11-16T07:58:59.588Z,62.80
2022-11-16T08:01:26.059Z,58.75
2022-11-16T08:03:52.691Z,62.80
2022-11-16T08:06:19.369Z,64.00
2022-11-16T08:08:45.758Z,64.18
2022-11-16T08:11:12.189Z,63.60
2022-11-16T08:13:38.598Z,63.65
2022-11-16T08:16:04.951Z,62.92
2022-11-16T08:18:31.828Z,61.58
2022-11-16T08:20:58.503Z,61.38
2022-11-16T08:23:24.849Z,60.33
2022-11-16T08:25:51.263Z,58.92
2022-11-16T08:28:17.888Z,60.00
2022-11-16T08:30:48.381Z,58.72
2022-11-16T08:33:17.421Z,58.58
2022-11-16T08:35:43.878Z,56.03
2022-11-16T08:38:10.357Z,58.20
2022-11-16T08:40:36.742Z,56.80
2022-11-16T08:43:03.119Z,56.90
2022-11-16T08:45:29.621Z,57.15
2022-11-16T08:48:03.368Z,58.00
2022-11-16T08:50:33.462Z,56.65
2022-11-16T08:53:06.195Z,57.28
2022-11-16T08:55:32.733Z,56.40
2022-11-16T08:57:59.488Z,55.85
2022-11-16T09:00:25.823Z,54.80
2022-11-16T09:02:52.169Z,57.90
2022-11-16T09:05:18.469Z,57.35
2022-11-16T09:07:44.809Z,56.65
2022-11-16T09:10:11.301Z,57.33
2022-11-16T09:12:37.879Z,59.22
2022-11-16T09:15:04.221Z,60.53
2022-11-16T09:17:30.779Z,61.85
2022-11-16T09:19:57.147Z,58.00
2022-11-16T09:22:23.547Z,58.90
2022-11-16T09:24:50.124Z,59.83
2022-11-16T09:27:16.603Z,60.45
2022-11-16T09:29:42.992Z,60.42
2022-11-16T09:32:09.424Z,59.55
2022-11-16T09:34:35.744Z,59.80
2022-11-16T09:37:02.152Z,57.65
2022-11-16T09:39:31.493Z,58.15
2022-11-16T09:41:58.348Z,55.60
2022-11-16T09:44:25.138Z,56.53
2022-11-16T09:46:51.806Z,57.15
2022-11-16T09:49:18.383Z,55.42
2022-11-16T09:51:45.086Z,54.25
2022-11-16T09:54:11.631Z,52.88
2022-11-16T09:56:37.999Z,53.78
2022-11-16T09:59:04.464Z,53.75
2022-11-16T10:01:30.838Z,53.47
2022-11-16T10:03:57.323Z,52.58
2022-11-16T10:06:23.837Z,52.47
2022-11-16T10:08:50.317Z,50.53
2022-11-16T10:11:16.714Z,49.55
2022-11-16T10:13:43.309Z,50.45
2022-11-16T10:16:09.713Z,51.72
2022-11-16T10:18:36.070Z,47.20
2022-11-16T10:21:02.529Z,49.20
2022-11-16T10:23:29.027Z,49.60
2022-11-16T10:25:55.590Z,48.22
2022-11-16T10:28:21.970Z,49.63
2022-11-16T10:30:48.412Z,47.95
2022-11-16T10:33:14.884Z,49.03
2022-11-16T10:35:41.306Z,47.65
2022-11-16T10:38:07.864Z,44.55
2022-11-16T10:40:34.390Z,48.13
2022-11-16T10:43:00.846Z,45.85
2022-11-16T10:45:27.242Z,46.00
2022-11-16T10:47:53.848Z,46.42
2022-11-16T10:50:20.300Z,42.47
2022-11-16T10:52:46.836Z,44.42
2022-11-16T10:55:13.205Z,42.95
2022-11-16T10:57:39.595Z,44.20
2022-11-16T11:00:12.540Z,41.90
2022-11-16T11:02:39.158Z,40.67
2022-11-16T11:05:05.708Z,41.03
2022-11-16T11:07:32.822Z,40.40
2022-11-16T11:09:59.357Z,38.63
2022-11-16T11:12:25.735Z,39.08
2022-11-16T11:14:52.127Z,37.92
2022-11-16T11:17:18.768Z,37.25
2022-11-16T11:19:45.338Z,37.83
2022-11-16T11:22:11.738Z,37.30
2022-11-16T11:24:44.265Z,37.97
2022-11-16T11:27:11.612Z,35.42
2022-11-16T11:29:38.270Z,34.70
2022-11-16T11:32:04.681Z,35.85
2022-11-16T11:34:31.049Z,35.70
2022-11-16T11:36:57.397Z,34.38
2022-11-16T11:39:23.854Z,34.58
2022-11-16T11:41:50.416Z,34.72
2022-11-16T11:44:16.761Z,31.75
2022-11-16T11:47:28.605Z,33.10
2022-11-16T11:49:33.664Z,31.38
2022-11-16T11:52:00.573Z,31.42
2022-11-16T11:54:27.047Z,32.10
2022-11-16T11:56:53.544Z,31.88
2022-11-16T11:59:20.084Z,31.38
2022-11-16T12:01:46.516Z,31.13
2022-11-16T12:04:12.921Z,29.25
2022-11-16T12:06:43.748Z,30.00
2022-11-16T12:09:10.821Z,29.65
2022-11-16T12:11:37.308Z,29.48
2022-11-16T12:14:03.743Z,28.15
2022-11-16T12:16:30.296Z,28.95
2022-11-16T12:18:56.930Z,27.85
2022-11-16T12:21:23.267Z,29.00
2022-11-16T12:23:49.754Z,26.17
2022-11-16T12:26:16.169Z,27.45
2022-11-16T12:28:44.908Z,27.05
2022-11-16T12:31:13.590Z,26.92
2022-11-16T12:33:40.383Z,25.90
2022-11-16T12:36:06.747Z,26.73
2022-11-16T12:38:33.204Z,26.10
2022-11-16T12:40:59.794Z,25.73
2022-11-16T12:43:26.283Z,24.90
2022-11-16T12:45:52.853Z,25.13
2022-11-16T12:48:19.211Z,22.95
2022-11-16T12:50:45.780Z,25.27
2022-11-16T12:53:13.952Z,23.58
2022-11-16T12:55:40.294Z,24.90
2022-11-16T12:58:06.798Z,22.00
2022-11-16T13:00:33.392Z,24.73
2022-11-16T13:02:59.825Z,23.77
2022-11-16T13:05:26.362Z,23.58
2022-11-16T13:07:52.985Z,22.95
2022-11-16T13:10:19.444Z,22.38
2022-11-16T13:12:45.862Z,23.60
2022-11-16T13:15:12.301Z,22.23
2022-11-16T13:17:38.633Z,23.20
2022-11-16T13:20:06.288Z,22.92
2022-11-16T13:25:01.917Z,21.80
2022-11-16T13:27:28.291Z,22.50
2022-11-16T13:29:54.723Z,21.63
2022-11-16T13:32:21.125Z,22.10
2022-11-16T13:34:47.838Z,22.65
2022-11-16T13:37:14.315Z,23.30
2022-11-16T13:39:40.949Z,21.08
2022-11-16T13:42:09.521Z,22.63
2022-11-16T13:44:35.902Z,21.13
2022-11-16T13:47:02.440Z,21.52
2022-11-16T13:49:28.887Z,22.70
2022-11-16T13:51:55.235Z,21.25
2022-11-16T13:57:09.248Z,21.25
2022-11-16T13:59:35.826Z,20.83
2022-11-16T14:02:02.397Z,21.13
2022-11-16T14:04:29.031Z,22.08
2022-11-16T14:06:55.543Z,21.17
2022-11-16T14:09:21.976Z,21.45
2022-11-16T14:11:48.539Z,21.35
2022-11-16T14:14:15.044Z,19.77
2022-11-16T14:16:41.507Z,19.98
2022-11-16T14:19:08.012Z,20.17
2022-11-16T14:21:34.452Z,19.48
2022-11-16T14:24:00.897Z,18.90
2022-11-16T14:26:27.957Z,19.17
2022-11-16T14:28:54.397Z,19.67
2022-11-16T14:31:20.841Z,19.08
2022-11-16T14:33:47.324Z,18.35
2022-11-16T14:36:14.056Z,19.42
2022-11-16T14:38:40.462Z,20.35
2022-11-16T14:41:06.818Z,18.13
2022-11-16T14:43:33.740Z,19.58
2022-11-16T14:46:00.439Z,19.05
2022-11-16T14:48:29.063Z,19.08
2022-11-16T14:50:55.489Z,19.90
2022-11-16T14:53:21.880Z,18.67
2022-11-16T14:55:49.219Z,18.80
2022-11-16T14:58:15.692Z,18.67
2022-11-16T15:00:42.128Z,19.23
2022-11-16T15:03:08.674Z,18.70
2022-11-16T15:05:35.185Z,18.95
2022-11-16T15:08:01.608Z,19.50
2022-11-16T15:10:28.333Z,18.88
2022-11-16T15:12:54.715Z,18.25
2022-11-16T15:15:21.270Z,18.35
2022-11-16T15:17:47.633Z,19.25
2022-11-16T15:20:14.104Z,18.40
2022-11-16T15:22:40.841Z,18.35
2022-11-16T15:25:07.158Z,17.75
2022-11-16T15:27:34.255Z,16.95
2022-11-16T15:30:00.624Z,17.58
2022-11-16T15:32:27.140Z,17.60
2022-11-16T15:34:53.594Z,18.90
2022-11-16T15:37:23.052Z,17.55
2022-11-16T15:39:49.472Z,18.23
2022-11-16T15:42:16.177Z,16.95
2022-11-16T15:44:42.645Z,18.40
2022-11-16T15:47:09.030Z,16.95
2022-11-16T15:49:35.725Z,17.15
2022-11-16T15:52:02.133Z,16.45
2022-11-16T15:54:28.479Z,16.88
2022-11-16T15:56:54.867Z,17.83
2022-11-16T15:59:21.184Z,17.48
2022-11-16T16:01:47.764Z,16.23
2022-11-16T16:04:14.404Z,15.52
2022-11-16T16:06:41.108Z,16.38
2022-11-16T16:09:07.580Z,15.52
2022-11-16T16:11:34.043Z,16.33
2022-11-16T16:14:00.503Z,16.08
2022-11-16T16:16:26.857Z,15.70
2022-11-16T16:18:53.329Z,16.02
2022-11-16T16:21:19.703Z,15.55
2022-11-16T16:23:46.166Z,14.90
2022-11-16T16:26:12.484Z,15.30
2022-11-16T16:28:39.085Z,15.93
2022-11-16T16:31:05.411Z,15.57
2022-11-16T16:33:31.997Z,15.10
2022-11-16T16:35:58.646Z,15.75
2022-11-16T16:38:24.996Z,15.43
2022-11-16T16:40:51.365Z,14.70
2022-11-16T16:43:17.888Z,14.13
2022-11-16T16:45:44.392Z,14.20
2022-11-16T16:48:10.940Z,15.00
2022-11-16T16:50:37.236Z,14.40
2022-11-16T16:53:03.545Z,13.73
2022-11-16T16:55:35.713Z,14.20
2022-11-16T16:58:03.545Z,14.48
2022-11-16T17:00:29.895Z,13.85
2022-11-16T17:02:56.233Z,13.77
2022-11-16T17:05:22.617Z,13.52
2022-11-16T17:07:49.038Z,13.43
2022-11-16T17:10:15.404Z,12.68
2022-11-16T17:12:41.744Z,13.00
2022-11-16T17:15:08.064Z,13.15
2022-11-16T17:17:34.428Z,13.30
2022-11-16T17:20:01.085Z,12.48
2022-11-16T17:22:27.753Z,13.57
2022-11-16T17:24:54.122Z,12.65
2022-11-16T17:27:20.838Z,12.18
2022-11-16T17:29:47.424Z,11.93
2022-11-16T17:32:13.917Z,11.93
2022-11-16T17:34:40.315Z,12.82
2022-11-16T17:37:06.740Z,12.43
2022-11-16T17:39:33.117Z,12.60
2022-11-16T17:41:59.558Z,12.52
2022-11-16T17:44:25.908Z,12.27
2022-11-16T17:46:52.305Z,11.07
2022-11-16T17:49:18.659Z,11.52
2022-11-16T17:51:45.000Z,10.90
2022-11-16T17:54:11.333Z,11.10
2022-11-16T17:56:37.624Z,11.40
2022-11-16T17:59:04.306Z,10.75
2022-11-16T18:01:30.832Z,10.70
2022-11-16T18:03:57.323Z,10.40
2022-11-16T18:06:23.601Z,10.88
2022-11-16T18:08:49.974Z,10.65
2022-11-16T18:11:16.336Z,10.50
2022-11-16T18:13:42.677Z,10.10
2022-11-16T18:16:09.214Z,10.23
2022-11-16T18:18:35.543Z,11.35
2022-11-16T18:21:02.021Z,9.32
2022-11-16T18:23:30.465Z,10.25
2022-11-16T18:25:56.837Z,9.90
2022-11-16T18:28:23.392Z,9.25
2022-11-16T18:30:49.750Z,10.35
2022-11-16T18:33:16.199Z,9.00
2022-11-16T18:35:42.691Z,9.10
2022-11-16T18:38:09.048Z,9.05
2022-11-16T18:40:35.350Z,8.77
2022-11-16T18:43:01.704Z,9.13
2022-11-16T18:45:28.115Z,9.40
2022-11-16T18:47:54.493Z,8.88
2022-11-16T18:50:26.538Z,9.43
2022-11-16T18:52:53.281Z,9.48
2022-11-16T18:55:19.666Z,8.77
2022-11-16T18:57:46.024Z,8.80
2022-11-16T19:00:12.372Z,8.85
2022-11-16T19:02:38.846Z,8.90
2022-11-16T19:05:05.259Z,8.93
2022-11-16T19:07:31.685Z,8.48
2022-11-16T19:09:58.066Z,8.82
2022-11-16T19:12:24.404Z,8.10
2022-11-16T19:14:50.809Z,8.55
2022-11-16T19:17:17.155Z,8.43
2022-11-16T19:19:43.526Z,8.85
2022-11-16T19:22:10.896Z,8.15
2022-11-16T19:24:37.385Z,9.02
2022-11-16T19:27:03.750Z,8.32
2022-11-16T19:29:30.209Z,8.50
2022-11-16T19:31:56.528Z,9.60
2022-11-16T19:34:23.102Z,9.32
2022-11-16T19:36:50.720Z,8.35
2022-11-16T19:39:17.266Z,8.88
2022-11-16T19:41:43.646Z,8.98
2022-11-16T19:44:09.990Z,8.60
2022-11-16T19:46:36.299Z,8.63
2022-11-16T19:49:02.847Z,8.63
2022-11-16T19:51:29.216Z,8.73
2022-11-16T19:53:55.601Z,8.88
2022-11-16T19:56:21.937Z,8.75
2022-11-16T19:58:48.273Z,9.05
2022-11-16T20:01:14.740Z,8.73
2022-11-16T20:03:41.354Z,9.43
2022-11-16T20:06:07.823Z,8.90
2022-11-16T20:08:34.246Z,9.30
2022-11-16T20:11:00.599Z,9.35
2022-11-16T20:13:27.097Z,8.82
2022-11-16T20:15:53.471Z,9.18
2022-11-16T20:18:19.852Z,9.10
2022-11-16T20:20:46.210Z,8.65
2022-11-16T20:23:12.570Z,9.27
2022-11-16T20:25:38.929Z,9.00
2022-11-16T20:28:05.298Z,9.52
2022-11-16T20:30:31.685Z,8.55
2022-11-16T20:32:58.152Z,8.98
2022-11-16T20:35:24.502Z,9.15
2022-11-16T20:37:50.878Z,8.82
2022-11-16T20:40:17.267Z,8.85
2022-11-16T20:42:43.642Z,8.80
2022-11-16T20:45:10.010Z,9.48
2022-11-16T20:47:36.341Z,9.18
2022-11-16T20:50:02.802Z,8.48
2022-11-16T20:52:29.178Z,8.80
2022-11-16T20:54:55.602Z,9.02
2022-11-16T20:57:22.025Z,8.45
2022-11-16T20:59:48.412Z,9.15
2022-11-16T21:02:14.785Z,8.57
2022-11-16T21:04:41.186Z,7.90
2022-11-16T21:07:07.560Z,8.48
2022-11-16T21:09:33.901Z,8.27
2022-11-16T21:12:00.556Z,8.15
2022-11-16T21:14:27.225Z,8.27
2022-11-16T21:16:53.578Z,8.00
2022-11-16T21:19:19.916Z,8.00
2022-11-16T21:21:46.284Z,8.38
2022-11-16T21:24:12.683Z,8.23
2022-11-16T21:26:39.032Z,8.02
2022-11-16T21:29:05.644Z,7.70
2022-11-16T21:31:31.997Z,7.85
2022-11-16T21:33:58.432Z,7.75
2022-11-16T21:36:24.781Z,8.32
2022-11-16T21:38:51.190Z,8.15
2022-11-16T21:41:17.562Z,8.20
2022-11-16T21:43:44.215Z,6.97
2022-11-16T21:46:10.559Z,7.85
2022-11-16T21:48:37.072Z,7.88
2022-11-16T21:51:03.597Z,7.40
2022-11-16T21:53:29.897Z,7.50
2022-11-16T21:55:56.403Z,7.57
2022-11-16T21:58:22.773Z,7.38
2022-11-16T22:00:49.217Z,7.40
2022-11-16T22:03:15.762Z,6.90
2022-11-16T22:05:42.089Z,7.10
2022-11-16T22:08:08.600Z,6.97
2022-11-16T22:10:35.000Z,7.00
2022-11-16T22:13:01.389Z,7.03
2022-11-16T22:15:27.872Z,7.05
2022-11-16T22:17:54.469Z,7.20
2022-11-16T22:20:20.805Z,6.80
2022-11-16T22:22:47.250Z,6.78
2022-11-16T22:25:13.941Z,7.05
2022-11-16T22:27:58.837Z,6.32
2022-11-16T22:30:26.937Z,7.00
2022-11-16T22:32:53.306Z,7.38
2022-11-16T22:35:19.711Z,7.05
2022-11-16T22:37:46.412Z,6.68
2022-11-16T22:40:17.601Z,7.20
2022-11-16T22:42:44.386Z,6.80
2022-11-16T22:45:10.818Z,7.72
2022-11-16T22:47:37.259Z,6.78
2022-11-16T22:50:03.654Z,6.80
2022-11-16T22:52:30.066Z,6.88
2022-11-16T22:54:56.407Z,7.13
2022-11-16T22:57:22.800Z,7.30
2022-11-16T22:59:49.264Z,7.22
2022-11-16T23:02:15.692Z,7.13
2022-11-16T23:04:42.084Z,7.68
2022-11-16T23:07:08.573Z,7.03
2022-11-16T23:09:35.278Z,6.68
2022-11-16T23:12:04.416Z,7.22
2022-11-16T23:14:30.833Z,8.27
2022-11-16T23:16:57.295Z,7.35
2022-11-16T23:19:23.683Z,7.05
2022-11-16T23:21:50.017Z,6.90
2022-11-16T23:24:16.455Z,6.90
2022-11-16T23:26:42.809Z,7.07
2022-11-16T23:29:09.160Z,7.30
2022-11-16T23:31:35.507Z,8.00
2022-11-16T23:34:01.916Z,7.63
2022-11-16T23:36:28.289Z,7.30
2022-11-16T23:38:54.875Z,7.72
2022-11-16T23:41:21.232Z,7.63
2022-11-16T23:43:47.776Z,7.50
2022-11-16T23:46:14.167Z,6.97
2022-11-16T23:48:40.582Z,7.35
2022-11-16T23:51:07.100Z,7.75
2022-11-16T23:53:34.041Z,7.30
2022-11-16T23:56:05.524Z,7.45
2022-11-16T23:58:32.574Z,7.68
